createdAt,value
2019-04-25T00:00:48.302Z,13.70
2019-04-25T00:03:22.336Z,13.60
2019-04-25T00:05:53.827Z,13.60
2019-04-25T00:08:25.033Z,13.50
2019-04-25T00:10:56.290Z,13.40
2019-04-25T00:13:27.979Z,13.30
2019-04-25T00:15:59.138Z,13.30
2019-04-25T00:18:31.877Z,13.30
2019-04-25T00:21:12.181Z,13.30
2019-04-25T00:23:45.975Z,13.20
2019-04-25T00:26:27.339Z,13.20
2019-04-25T00:28:59.947Z,13.20
2019-04-25T00:31:31.882Z,13.20
2019-04-25T00:34:03.245Z,13.20
2019-04-25T00:36:34.631Z,13.10
2019-04-25T00:39:07.715Z,13.10
2019-04-25T00:41:39.512Z,13.00
2019-04-25T00:44:12.151Z,12.90
2019-04-25T00:46:47.671Z,12.90
2019-04-25T00:49:16.899Z,13.00
2019-04-25T00:51:48.332Z,13.00
2019-04-25T00:54:19.690Z,13.00
2019-04-25T00:56:52.742Z,13.00
2019-04-25T00:59:32.040Z,13.00
2019-04-25T01:02:31.551Z,12.90
2019-04-25T01:05:04.809Z,13.00
2019-04-25T01:07:36.181Z,13.00
2019-04-25T01:10:09.334Z,13.10
2019-04-25T01:12:41.714Z,13.10
2019-04-25T01:15:14.658Z,13.10
2019-04-25T01:17:46.966Z,13.00
2019-04-25T01:20:18.412Z,12.90
2019-04-25T01:22:49.568Z,12.80
2019-04-25T01:25:20.986Z,12.80
2019-04-25T01:27:53.923Z,12.70
2019-04-25T01:30:27.660Z,12.70
2019-04-25T01:32:58.945Z,12.60
2019-04-25T01:35:43.109Z,12.70
2019-04-25T01:38:41.283Z,12.70
2019-04-25T01:41:30.630Z,12.70
2019-04-25T01:44:10.556Z,12.60
2019-04-25T01:46:44.218Z,12.60
2019-04-25T01:49:15.619Z,12.60
2019-04-25T01:51:48.823Z,12.50
2019-04-25T01:54:20.264Z,12.50
2019-04-25T01:56:51.537Z,12.60
2019-04-25T01:59:23.752Z,12.60
2019-04-25T02:01:56.790Z,12.60
2019-04-25T02:04:28.286Z,12.50
2019-04-25T02:06:59.658Z,12.50
2019-04-25T02:09:31.323Z,12.40
2019-04-25T02:12:30.832Z,12.40
2019-04-25T02:15:05.903Z,12.30
2019-04-25T02:17:36.048Z,12.20
2019-04-25T02:20:07.856Z,12.20
2019-04-25T02:22:39.545Z,12.20
2019-04-25T02:25:10.817Z,12.20
2019-04-25T02:27:42.260Z,12.20
2019-04-25T02:30:15.626Z,12.20
2019-04-25T02:32:48.315Z,12.20
2019-04-25T02:35:20.457Z,12.10
2019-04-25T02:37:52.081Z,12.00
2019-04-25T02:40:24.045Z,12.00
2019-04-25T02:42:57.330Z,12.00
2019-04-25T02:45:51.289Z,11.90
2019-04-25T02:48:48.018Z,11.90
2019-04-25T02:51:29.161Z,11.90
2019-04-25T02:54:01.802Z,11.90
2019-04-25T02:56:35.835Z,11.80
2019-04-25T02:59:09.052Z,11.70
2019-04-25T03:01:40.288Z,11.70
2019-04-25T03:04:11.690Z,11.60
2019-04-25T03:06:45.303Z,11.70
2019-04-25T03:09:16.871Z,11.70
2019-04-25T03:11:48.188Z,11.80
2019-04-25T03:14:19.504Z,11.80
2019-04-25T03:16:50.987Z,11.80
2019-04-25T03:19:40.437Z,11.80
2019-04-25T03:22:15.039Z,11.70
2019-04-25T03:24:46.983Z,11.70
2019-04-25T03:27:18.301Z,11.70
2019-04-25T03:29:49.997Z,11.50
2019-04-25T03:32:21.337Z,11.40
2019-04-25T03:34:53.133Z,11.20
2019-04-25T03:37:25.975Z,11.10
2019-04-25T03:39:58.366Z,11.10
2019-04-25T03:42:30.003Z,11.00
2019-04-25T03:45:01.765Z,10.90
2019-04-25T03:47:33.289Z,10.80
2019-04-25T03:50:06.099Z,10.80
2019-04-25T03:52:38.878Z,10.80
2019-04-25T03:55:10.536Z,10.70
2019-04-25T03:57:41.902Z,10.70
2019-04-25T04:00:14.528Z,10.70
2019-04-25T04:02:46.018Z,10.70
2019-04-25T04:05:17.362Z,10.60
2019-04-25T04:07:48.589Z,10.50
2019-04-25T04:10:21.247Z,10.50
2019-04-25T04:12:54.273Z,10.50
2019-04-25T04:15:26.041Z,10.50
2019-04-25T04:18:28.635Z,10.50
2019-04-25T04:21:17.473Z,10.40
2019-04-25T04:23:54.471Z,10.40
2019-04-25T04:26:26.811Z,10.30
2019-04-25T04:28:58.511Z,10.20
2019-04-25T04:31:31.331Z,10.20
2019-04-25T04:34:03.788Z,10.20
2019-04-25T04:36:35.640Z,10.20
2019-04-25T04:39:09.060Z,10.20
2019-04-25T04:41:41.284Z,10.10
2019-04-25T04:44:14.321Z,10.10
2019-04-25T04:46:46.418Z,10.20
2019-04-25T04:49:18.468Z,10.20
2019-04-25T04:51:49.948Z,10.20
2019-04-25T04:54:23.079Z,10.40
2019-04-25T04:56:54.413Z,10.60
2019-04-25T04:59:26.535Z,10.70
2019-04-25T05:02:24.423Z,10.80
2019-04-25T05:05:17.922Z,10.90
2019-04-25T05:07:55.844Z,11.00
2019-04-25T05:10:27.342Z,11.00
2019-04-25T05:12:58.998Z,11.00
2019-04-25T05:15:30.370Z,11.00
2019-04-25T05:18:03.929Z,10.90
2019-04-25T05:20:35.606Z,11.00
2019-04-25T05:23:08.922Z,11.00
2019-04-25T05:25:40.635Z,11.00
2019-04-25T05:28:13.131Z,11.00
2019-04-25T05:30:56.420Z,11.00
2019-04-25T05:33:27.700Z,11.00
2019-04-25T05:36:00.082Z,11.10
2019-04-25T05:38:33.170Z,11.20
2019-04-25T05:41:15.808Z,11.30
2019-04-25T05:43:48.994Z,11.40
2019-04-25T05:46:21.068Z,11.50
2019-04-25T05:48:53.770Z,11.60
2019-04-25T05:51:25.924Z,11.70
2019-04-25T05:53:57.353Z,11.70
2019-04-25T05:56:28.662Z,11.70
2019-04-25T05:59:00.185Z,11.70
2019-04-25T06:01:31.519Z,11.60
2019-04-25T06:04:03.636Z,11.60
2019-04-25T06:06:36.866Z,11.70
2019-04-25T06:09:28.085Z,11.80
2019-04-25T06:12:08.825Z,11.90
2019-04-25T06:14:40.209Z,12.10
2019-04-25T06:17:15.584Z,12.30
2019-04-25T06:19:53.389Z,12.50
2019-04-25T06:22:31.471Z,12.60
2019-04-25T06:25:12.504Z,12.60
2019-04-25T06:27:56.497Z,12.80
2019-04-25T06:30:24.898Z,12.90
2019-04-25T06:32:56.862Z,13.10
2019-04-25T06:35:28.200Z,13.20
2019-04-25T06:37:59.727Z,13.30
2019-04-25T06:40:31.311Z,13.40
2019-04-25T06:43:03.473Z,13.60
2019-04-25T06:45:55.405Z,13.80
2019-04-25T06:48:58.160Z,14.00
2019-04-25T06:51:47.356Z,14.20
2019-04-25T06:54:18.711Z,14.50
2019-04-25T06:56:50.061Z,14.70
2019-04-25T06:59:23.031Z,14.90
2019-04-25T07:01:56.191Z,15.10
2019-04-25T07:04:29.159Z,15.20
2019-04-25T07:07:10.616Z,15.30
2019-04-25T07:09:34.907Z,15.60
2019-04-25T07:12:07.057Z,15.80
2019-04-25T07:14:39.208Z,16.00
2019-04-25T07:17:10.512Z,16.20
2019-04-25T07:19:43.721Z,16.40
2019-04-25T07:22:15.957Z,16.60
2019-04-25T07:24:47.372Z,16.80
2019-04-25T07:27:34.066Z,17.00
2019-04-25T07:30:31.944Z,17.00
2019-04-25T07:33:03.817Z,17.20
2019-04-25T07:35:35.760Z,17.40
2019-04-25T07:38:07.599Z,17.60
2019-04-25T07:40:38.924Z,17.80
2019-04-25T07:43:10.545Z,18.10
2019-04-25T07:45:43.512Z,18.30
2019-04-25T07:48:14.935Z,18.30
2019-04-25T07:50:46.250Z,18.40
2019-04-25T07:53:18.143Z,18.50
2019-04-25T07:55:49.359Z,18.80
2019-04-25T07:58:20.838Z,19.10
2019-04-25T08:00:53.974Z,19.30
2019-04-25T08:03:25.350Z,19.40
2019-04-25T08:05:56.962Z,19.60
2019-04-25T08:08:28.235Z,19.80
2019-04-25T08:11:06.946Z,19.90
2019-04-25T08:13:44.637Z,19.90
2019-04-25T08:16:17.837Z,20.00
2019-04-25T08:18:51.435Z,20.30
2019-04-25T08:21:24.276Z,20.30
2019-04-25T08:23:57.230Z,20.50
2019-04-25T08:26:29.433Z,20.80
2019-04-25T08:29:00.779Z,21.00
2019-04-25T08:31:34.599Z,21.10
2019-04-25T08:34:05.322Z,21.30
2019-04-25T08:36:38.528Z,21.20
2019-04-25T08:39:11.642Z,21.20
2019-04-25T08:41:45.377Z,21.50
2019-04-25T08:44:15.888Z,21.40
2019-04-25T08:46:48.750Z,21.80
2019-04-25T08:49:39.927Z,22.00
2019-04-25T08:52:13.130Z,22.20
2019-04-25T08:55:10.098Z,22.40
2019-04-25T08:58:13.778Z,22.60
2019-04-25T09:01:09.914Z,22.80
2019-04-25T09:03:47.711Z,22.90
2019-04-25T09:06:19.185Z,22.80
2019-04-25T09:08:50.473Z,22.80
2019-04-25T09:11:22.098Z,23.00
2019-04-25T09:13:54.828Z,23.10
2019-04-25T09:16:26.054Z,22.90
2019-04-25T09:18:57.729Z,22.90
2019-04-25T09:21:29.188Z,22.90
2019-04-25T09:24:00.393Z,22.70
2019-04-25T09:26:31.979Z,22.80
2019-04-25T09:29:16.001Z,22.80
2019-04-25T09:31:37.583Z,22.80
2019-04-25T09:34:10.222Z,23.00
2019-04-25T09:36:43.582Z,23.00
2019-04-25T09:39:39.966Z,23.20
2019-04-25T09:42:14.134Z,23.40
2019-04-25T09:45:10.281Z,23.50
2019-04-25T09:47:44.392Z,23.70
2019-04-25T09:50:34.044Z,23.70
2019-04-25T09:53:05.393Z,23.80
2019-04-25T09:55:55.850Z,23.90
2019-04-25T09:58:40.082Z,24.10
2019-04-25T10:01:14.099Z,24.20
2019-04-25T10:03:45.783Z,24.20
2019-04-25T10:06:19.781Z,24.30
2019-04-25T10:08:51.130Z,24.50
2019-04-25T10:11:23.721Z,24.60
2019-04-25T10:14:06.357Z,24.40
2019-04-25T10:16:37.953Z,24.50
2019-04-25T10:19:10.391Z,24.50
2019-04-25T10:21:41.927Z,24.70
2019-04-25T10:24:13.635Z,24.60
2019-04-25T10:26:45.452Z,24.60
2019-04-25T10:29:18.070Z,25.10
2019-04-25T10:31:49.270Z,25.40
2019-04-25T10:34:20.848Z,25.30
2019-04-25T10:36:53.279Z,25.20
2019-04-25T10:39:25.436Z,25.50
2019-04-25T10:41:57.241Z,25.80
2019-04-25T10:44:29.013Z,25.90
2019-04-25T10:47:00.303Z,26.10
2019-04-25T10:49:31.688Z,26.20
2019-04-25T10:52:02.956Z,26.30
2019-04-25T10:54:35.221Z,26.40
2019-04-25T10:57:06.959Z,26.60
2019-04-25T10:59:38.264Z,26.50
2019-04-25T11:02:11.099Z,26.60
2019-04-25T11:04:48.826Z,26.60
2019-04-25T11:07:20.960Z,26.40
2019-04-25T11:09:53.926Z,26.40
2019-04-25T11:12:25.325Z,26.30
2019-04-25T11:14:56.622Z,26.60
2019-04-25T11:17:27.924Z,26.60
2019-04-25T11:19:59.548Z,26.70
2019-04-25T11:22:31.062Z,26.70
2019-04-25T11:25:02.743Z,27.10
2019-04-25T11:27:34.324Z,27.60
2019-04-25T11:30:10.753Z,27.90
2019-04-25T11:32:40.211Z,28.10
2019-04-25T11:35:11.454Z,27.20
2019-04-25T11:37:43.186Z,26.80
2019-04-25T11:40:24.313Z,26.60
2019-04-25T11:42:55.642Z,26.60
2019-04-25T11:45:27.259Z,26.60
2019-04-25T11:47:58.670Z,26.50
2019-04-25T11:50:30.102Z,26.80
2019-04-25T11:53:03.007Z,27.30
2019-04-25T11:55:34.769Z,27.20
2019-04-25T11:58:06.407Z,27.20
2019-04-25T12:00:37.756Z,27.40
2019-04-25T12:03:09.214Z,28.00
2019-04-25T12:05:40.541Z,28.20
2019-04-25T12:08:13.412Z,27.90
2019-04-25T12:10:45.797Z,27.20
2019-04-25T12:13:17.899Z,27.60
2019-04-25T12:15:49.854Z,27.90
2019-04-25T12:18:21.072Z,27.60
2019-04-25T12:20:54.861Z,27.50
2019-04-25T12:23:26.008Z,28.00
2019-04-25T12:25:57.639Z,28.30
2019-04-25T12:28:29.092Z,28.10
2019-04-25T12:31:00.705Z,28.30
2019-04-25T12:33:32.597Z,28.70
2019-04-25T12:36:04.113Z,27.80
2019-04-25T12:38:35.597Z,27.80
2019-04-25T12:41:07.675Z,28.20
2019-04-25T12:43:40.856Z,28.50
2019-04-25T12:46:21.264Z,28.60
2019-04-25T12:48:52.428Z,28.70
2019-04-25T12:51:24.309Z,29.10
2019-04-25T12:53:56.076Z,29.30
2019-04-25T12:56:27.467Z,29.30
2019-04-25T12:58:58.724Z,29.20
2019-04-25T13:01:30.723Z,29.30
2019-04-25T13:04:02.056Z,29.30
2019-04-25T13:06:33.866Z,29.20
2019-04-25T13:09:07.182Z,28.80
2019-04-25T13:11:40.127Z,28.40
2019-04-25T13:14:12.174Z,27.80
2019-04-25T13:16:44.335Z,27.00
2019-04-25T13:19:23.730Z,26.80
2019-04-25T13:21:49.699Z,26.80
2019-04-25T13:24:21.621Z,27.10
2019-04-25T13:27:06.122Z,27.10
2019-04-25T13:29:48.274Z,27.30
2019-04-25T13:32:31.135Z,27.70
2019-04-25T13:35:04.978Z,27.80
2019-04-25T13:37:36.319Z,27.50
2019-04-25T13:40:07.878Z,27.70
2019-04-25T13:42:39.387Z,27.70
2019-04-25T13:45:10.677Z,27.70
2019-04-25T13:47:41.935Z,26.90
2019-04-25T13:50:14.612Z,26.80
2019-04-25T13:52:45.971Z,26.70
2019-04-25T13:55:17.298Z,26.40
2019-04-25T13:57:48.672Z,26.30
2019-04-25T14:00:23.136Z,26.40
2019-04-25T14:02:55.056Z,26.20
2019-04-25T14:05:26.595Z,25.90
2019-04-25T14:07:58.297Z,25.80
2019-04-25T14:10:30.082Z,25.80
2019-04-25T14:13:03.420Z,25.90
2019-04-25T14:15:37.256Z,25.90
2019-04-25T14:18:24.029Z,26.10
2019-04-25T14:21:04.736Z,26.30
2019-04-25T14:23:35.869Z,26.20
2019-04-25T14:26:07.802Z,26.40
2019-04-25T14:28:39.463Z,26.50
2019-04-25T14:31:13.122Z,26.30
2019-04-25T14:33:46.402Z,26.30
2019-04-25T14:36:17.695Z,26.40
2019-04-25T14:38:48.967Z,25.90
2019-04-25T14:41:22.195Z,25.80
2019-04-25T14:43:53.616Z,25.70
2019-04-25T14:46:26.377Z,25.90
2019-04-25T14:48:58.160Z,26.20
2019-04-25T14:51:29.376Z,26.30
2019-04-25T14:54:03.453Z,26.10
2019-04-25T14:56:47.688Z,26.10
2019-04-25T14:59:21.009Z,25.70
2019-04-25T15:01:52.400Z,25.60
2019-04-25T15:04:24.079Z,25.30
2019-04-25T15:06:55.712Z,25.30
2019-04-25T15:09:26.923Z,25.20
2019-04-25T15:11:58.128Z,25.40
2019-04-25T15:14:33.529Z,25.60
2019-04-25T15:17:08.139Z,25.50
2019-04-25T15:19:41.653Z,25.30
2019-04-25T15:22:18.863Z,25.30
2019-04-25T15:24:50.297Z,25.30
2019-04-25T15:27:25.276Z,25.50
2019-04-25T15:29:57.389Z,25.60
2019-04-25T15:32:32.630Z,25.60
2019-04-25T15:35:04.659Z,25.60
2019-04-25T15:37:55.124Z,25.60
2019-04-25T15:40:34.847Z,25.70
2019-04-25T15:43:26.215Z,25.60
2019-04-25T15:46:10.792Z,25.60
2019-04-25T15:48:42.101Z,25.60
2019-04-25T15:51:13.598Z,25.50
2019-04-25T15:53:45.053Z,25.30
2019-04-25T15:56:16.739Z,25.00
2019-04-25T15:58:48.800Z,25.00
2019-04-25T16:01:20.062Z,25.00
2019-04-25T16:03:52.643Z,24.90
2019-04-25T16:06:24.066Z,24.80
2019-04-25T16:08:55.369Z,24.80
2019-04-25T16:11:26.759Z,24.80
2019-04-25T16:13:58.374Z,24.80
2019-04-25T16:16:31.132Z,24.80
2019-04-25T16:19:02.850Z,24.80
2019-04-25T16:21:35.497Z,24.60
2019-04-25T16:24:08.005Z,24.50
2019-04-25T16:26:39.316Z,24.50
2019-04-25T16:29:11.077Z,24.50
2019-04-25T16:31:42.444Z,24.50
2019-04-25T16:34:13.824Z,24.60
2019-04-25T16:36:45.356Z,24.60
2019-04-25T16:39:21.617Z,24.70
2019-04-25T16:41:52.981Z,24.70
2019-04-25T16:44:24.725Z,24.60
2019-04-25T16:46:55.910Z,24.50
2019-04-25T16:49:27.485Z,24.60
2019-04-25T16:52:00.811Z,24.60
2019-04-25T16:54:32.465Z,24.60
2019-04-25T16:57:04.432Z,24.60
2019-04-25T16:59:35.957Z,24.60
2019-04-25T17:02:07.383Z,24.60
2019-04-25T17:04:40.007Z,24.60
2019-04-25T17:07:11.623Z,24.40
2019-04-25T17:09:42.935Z,24.50
2019-04-25T17:12:15.964Z,24.50
2019-04-25T17:14:58.080Z,24.50
2019-04-25T17:17:41.123Z,24.50
2019-04-25T17:20:22.930Z,24.40
2019-04-25T17:22:54.804Z,24.40
2019-04-25T17:25:26.506Z,24.40
2019-04-25T17:27:58.286Z,24.40
2019-04-25T17:30:31.343Z,24.40
2019-04-25T17:33:18.284Z,24.30
2019-04-25T17:36:07.250Z,24.20
2019-04-25T17:38:42.902Z,24.20
2019-04-25T17:41:14.893Z,24.10
2019-04-25T17:43:46.160Z,24.00
2019-04-25T17:46:19.637Z,24.00
2019-04-25T17:48:50.987Z,23.90
2019-04-25T17:51:24.189Z,23.80
2019-04-25T17:53:56.452Z,23.80
2019-04-25T17:56:29.375Z,23.70
2019-04-25T17:59:00.829Z,23.70
2019-04-25T18:01:32.889Z,23.60
2019-04-25T18:04:07.312Z,23.50
2019-04-25T18:06:39.975Z,23.40
2019-04-25T18:09:11.764Z,23.40
2019-04-25T18:11:45.349Z,23.30
2019-04-25T18:14:17.124Z,23.20
2019-04-25T18:16:50.460Z,23.20
2019-04-25T18:19:38.801Z,23.10
2019-04-25T18:22:26.618Z,23.10
2019-04-25T18:25:20.546Z,22.90
2019-04-25T18:27:59.949Z,22.90
2019-04-25T18:30:31.595Z,22.80
2019-04-25T18:33:10.567Z,22.70
2019-04-25T18:35:43.040Z,22.70
2019-04-25T18:38:34.014Z,22.60
2019-04-25T18:41:33.199Z,22.50
2019-04-25T18:44:05.625Z,22.40
2019-04-25T18:46:42.952Z,22.30
2019-04-25T18:49:14.238Z,22.20
2019-04-25T18:51:56.518Z,22.10
2019-04-25T18:54:37.423Z,22.00
2019-04-25T18:57:13.252Z,21.90
2019-04-25T19:00:14.683Z,21.90
2019-04-25T19:03:05.215Z,21.80
2019-04-25T19:05:55.438Z,21.70
2019-04-25T19:08:26.769Z,21.70
2019-04-25T19:10:58.130Z,21.60
2019-04-25T19:13:29.555Z,21.50
2019-04-25T19:16:06.113Z,21.50
2019-04-25T19:18:37.285Z,21.40
2019-04-25T19:21:08.969Z,21.40
2019-04-25T19:23:40.467Z,21.30
2019-04-25T19:26:12.324Z,21.20
2019-04-25T19:28:44.792Z,21.00
2019-04-25T19:31:16.058Z,20.90
2019-04-25T19:33:47.597Z,20.80
2019-04-25T19:36:19.323Z,20.80
2019-04-25T19:38:50.974Z,20.70
2019-04-25T19:41:28.699Z,20.70
2019-04-25T19:44:17.681Z,20.60
2019-04-25T19:46:51.327Z,20.60
2019-04-25T19:49:23.323Z,20.70
2019-04-25T19:51:55.793Z,20.70
2019-04-25T19:54:27.351Z,20.80
2019-04-25T19:56:58.570Z,20.80
2019-04-25T19:59:29.843Z,20.80
2019-04-25T20:02:06.875Z,20.90
2019-04-25T20:04:46.821Z,20.80
2019-04-25T20:07:27.453Z,20.60
2019-04-25T20:10:23.866Z,20.60
2019-04-25T20:12:55.527Z,20.20
2019-04-25T20:15:26.809Z,19.80
2019-04-25T20:17:58.322Z,19.60
2019-04-25T20:20:29.593Z,19.40
2019-04-25T20:23:00.737Z,19.30
2019-04-25T20:25:32.058Z,19.20
2019-04-25T20:28:03.276Z,19.20
2019-04-25T20:30:35.199Z,19.20
2019-04-25T20:33:06.495Z,18.80
2019-04-25T20:35:38.063Z,18.50
2019-04-25T20:38:09.375Z,18.40
2019-04-25T20:40:41.027Z,18.30
2019-04-25T20:43:14.569Z,18.20
2019-04-25T20:45:46.929Z,18.10
2019-04-25T20:48:19.141Z,18.00
2019-04-25T20:50:50.410Z,17.80
2019-04-25T20:53:22.412Z,17.60
2019-04-25T20:55:54.953Z,17.50
2019-04-25T20:58:26.643Z,17.40
2019-04-25T21:00:59.882Z,17.40
2019-04-25T21:03:31.153Z,17.30
2019-04-25T21:06:07.998Z,17.20
2019-04-25T21:08:39.294Z,17.20
2019-04-25T21:11:10.540Z,17.20
2019-04-25T21:14:00.039Z,17.20
2019-04-25T21:16:50.544Z,17.20
2019-04-25T21:19:30.877Z,17.00
2019-04-25T21:22:02.208Z,16.70
2019-04-25T21:24:33.492Z,16.60
2019-04-25T21:27:05.105Z,16.50
2019-04-25T21:29:36.468Z,16.50
2019-04-25T21:32:08.031Z,16.60
2019-04-25T21:34:39.319Z,16.60
2019-04-25T21:37:11.231Z,16.50
2019-04-25T21:39:55.096Z,16.50
2019-04-25T21:42:48.909Z,16.40
2019-04-25T21:45:20.497Z,16.40
2019-04-25T21:47:52.368Z,16.30
2019-04-25T21:50:25.556Z,16.10
2019-04-25T21:52:56.938Z,16.00
2019-04-25T21:55:28.642Z,16.00
2019-04-25T21:58:00.085Z,16.00
2019-04-25T22:00:50.308Z,15.90
2019-04-25T22:03:23.993Z,15.90
2019-04-25T22:05:56.870Z,15.80
2019-04-25T22:08:28.239Z,15.70
2019-04-25T22:11:01.206Z,15.70
2019-04-25T22:13:32.717Z,15.60
2019-04-25T22:16:04.437Z,15.60
2019-04-25T22:18:36.178Z,15.50
2019-04-25T22:21:07.653Z,15.50
2019-04-25T22:23:39.212Z,15.40
2019-04-25T22:26:10.654Z,15.40
2019-04-25T22:28:42.241Z,15.40
2019-04-25T22:31:18.419Z,15.50
2019-04-25T22:33:59.830Z,15.50
2019-04-25T22:36:32.317Z,15.40
2019-04-25T22:39:13.078Z,15.40
2019-04-25T22:41:48.374Z,15.50
2019-04-25T22:44:21.349Z,15.60
2019-04-25T22:46:52.922Z,15.70
2019-04-25T22:49:24.150Z,15.70
2019-04-25T22:51:55.685Z,15.60
2019-04-25T22:54:28.883Z,15.60
2019-04-25T22:57:00.356Z,15.60
2019-04-25T22:59:33.178Z,15.70
2019-04-25T23:02:32.304Z,15.60
2019-04-25T23:05:34.847Z,15.70
2019-04-25T23:08:06.495Z,15.70
2019-04-25T23:10:38.577Z,15.70
2019-04-25T23:13:10.884Z,15.80
2019-04-25T23:15:42.327Z,15.90
2019-04-25T23:18:13.684Z,16.10
2019-04-25T23:20:46.318Z,16.10
2019-04-25T23:23:17.856Z,16.20
2019-04-25T23:26:00.960Z,16.30
2019-04-25T23:28:36.449Z,16.30
2019-04-25T23:31:12.596Z,16.40
2019-04-25T23:33:44.330Z,16.50
2019-04-25T23:36:15.986Z,16.50
2019-04-25T23:38:47.873Z,16.50
2019-04-25T23:41:19.451Z,16.60
2019-04-25T23:43:51.055Z,16.70
2019-04-25T23:46:22.200Z,16.60
2019-04-25T23:48:54.143Z,16.60
2019-04-25T23:51:25.733Z,16.70
2019-04-25T23:53:57.839Z,16.60
2019-04-25T23:56:29.275Z,16.60
2019-04-25T23:59:01.430Z,16.60
